sensor_id;sensor_type;location;lat;lon;timestamp;pressure;altitude;pressure_sealevel;temperature;humidity
12073;BME280;6098;49.004;8.372;2023-04-27T00:02:39;100488.36;;;11.37;61.10
12073;BME280;6098;49.004;8.372;2023-04-27T00:17:32;100468.84;;;11.18;61.88
12073;BME280;6098;49.004;8.372;2023-04-27T00:32:23;100463.58;;;10.94;63.57
12073;BME280;6098;49.004;8.372;2023-04-27T00:47:18;100469.82;;;10.70;64.26
12073;BME280;6098;49.004;8.372;2023-04-27T01:02:10;100458.81;;;10.45;65.34
12073;BME280;6098;49.004;8.372;2023-04-27T01:17:04;100474.30;;;10.07;66.48
12073;BME280;6098;49.004;8.372;2023-04-27T01:31:57;100478.78;;;10.06;67.57
12073;BME280;6098;49.004;8.372;2023-04-27T01:46:47;100476.35;;;9.74;69.75
12073;BME280;6098;49.004;8.372;2023-04-27T02:01:41;100484.17;;;9.77;69.90
12073;BME280;6098;49.004;8.372;2023-04-27T02:16:31;100480.69;;;9.89;69.76
12073;BME280;6098;49.004;8.372;2023-04-27T02:31:23;100493.57;;;9.60;71.17
12073;BME280;6098;49.004;8.372;2023-04-27T02:46:14;100496.33;;;9.43;71.63
12073;BME280;6098;49.004;8.372;2023-04-27T03:01:05;100502.75;;;9.36;71.56
12073;BME280;6098;49.004;8.372;2023-04-27T03:15:57;100504.88;;;9.38;71.62
12073;BME280;6098;49.004;8.372;2023-04-27T03:30:48;100510.81;;;9.32;71.26
12073;BME280;6098;49.004;8.372;2023-04-27T03:45:40;100510.91;;;9.30;70.11
12073;BME280;6098;49.004;8.372;2023-04-27T04:00:35;100518.87;;;9.14;67.32
12073;BME280;6098;49.004;8.372;2023-04-27T04:15:28;100527.64;;;9.16;65.94
12073;BME280;6098;49.004;8.372;2023-04-27T04:30:19;100517.96;;;9.01;66.39
12073;BME280;6098;49.004;8.372;2023-04-27T04:45:10;100528.94;;;9.02;66.33
12073;BME280;6098;49.004;8.372;2023-04-27T05:00:00;100531.75;;;8.96;65.88
12073;BME280;6098;49.004;8.372;2023-04-27T05:14:51;100535.53;;;9.03;65.83
12073;BME280;6098;49.004;8.372;2023-04-27T05:29:43;100553.16;;;9.17;65.43
12073;BME280;6098;49.004;8.372;2023-04-27T05:44:33;100565.02;;;8.90;65.79
12073;BME280;6098;49.004;8.372;2023-04-27T05:59:25;100572.05;;;9.05;65.77
12073;BME280;6098;49.004;8.372;2023-04-27T06:14:17;100596.87;;;9.43;65.52
12073;BME280;6098;49.004;8.372;2023-04-27T06:29:10;100601.19;;;9.60;65.52
12073;BME280;6098;49.004;8.372;2023-04-27T06:44:01;100604.30;;;9.74;64.58
12073;BME280;6098;49.004;8.372;2023-04-27T06:58:53;100607.77;;;10.17;63.71
12073;BME280;6098;49.004;8.372;2023-04-27T07:13:49;100607.41;;;10.52;62.78
12073;BME280;6098;49.004;8.372;2023-04-27T07:28:42;100604.22;;;10.91;61.29
12073;BME280;6098;49.004;8.372;2023-04-27T07:43:34;100594.02;;;11.38;59.27
12073;BME280;6098;49.004;8.372;2023-04-27T07:58:24;100583.02;;;11.72;58.54
12073;BME280;6098;49.004;8.372;2023-04-27T08:13:17;100579.53;;;12.34;57.65
12073;BME280;6098;49.004;8.372;2023-04-27T08:28:09;100579.87;;;12.86;55.39
12073;BME280;6098;49.004;8.372;2023-04-27T08:43:03;100573.83;;;13.39;54.06
12073;BME280;6098;49.004;8.372;2023-04-27T08:57:56;100576.13;;;13.84;53.25
12073;BME280;6098;49.004;8.372;2023-04-27T09:12:58;100570.33;;;14.20;52.59
12073;BME280;6098;49.004;8.372;2023-04-27T09:27:55;100566.97;;;14.76;50.73
12073;BME280;6098;49.004;8.372;2023-04-27T09:42:47;100566.39;;;14.87;49.64
12073;BME280;6098;49.004;8.372;2023-04-27T09:58:05;100554.25;;;15.21;48.15
12073;BME280;6098;49.004;8.372;2023-04-27T10:13:01;100549.75;;;15.38;47.25
12073;BME280;6098;49.004;8.372;2023-04-27T10:27:59;100537.52;;;15.58;45.97
12073;BME280;6098;49.004;8.372;2023-04-27T10:42:54;100543.42;;;16.02;44.58
12073;BME280;6098;49.004;8.372;2023-04-27T10:57:49;100529.16;;;16.39;43.96
12073;BME280;6098;49.004;8.372;2023-04-27T11:12:45;100527.05;;;16.87;42.88
12073;BME280;6098;49.004;8.372;2023-04-27T11:27:51;100506.47;;;17.43;41.22
12073;BME280;6098;49.004;8.372;2023-04-27T11:42:42;100486.34;;;17.51;39.93
12073;BME280;6098;49.004;8.372;2023-04-27T11:57:35;100459.98;;;18.17;39.24
12073;BME280;6098;49.004;8.372;2023-04-27T12:12:27;100461.66;;;18.50;39.79
12073;BME280;6098;49.004;8.372;2023-04-27T12:27:20;100455.22;;;18.78;38.79
12073;BME280;6098;49.004;8.372;2023-04-27T12:42:12;100441.60;;;18.93;39.08
12073;BME280;6098;49.004;8.372;2023-04-27T12:57:05;100434.25;;;19.38;38.59
12073;BME280;6098;49.004;8.372;2023-04-27T13:11:57;100427.50;;;19.68;38.32
12073;BME280;6098;49.004;8.372;2023-04-27T13:26:49;100421.09;;;19.52;37.60
12073;BME280;6098;49.004;8.372;2023-04-27T13:41:44;100411.41;;;19.85;36.66
12073;BME280;6098;49.004;8.372;2023-04-27T13:56:37;100419.52;;;20.13;35.88
12073;BME280;6098;49.004;8.372;2023-04-27T14:11:32;100400.77;;;20.18;35.98
12073;BME280;6098;49.004;8.372;2023-04-27T14:26:29;100407.61;;;21.17;34.71
12073;BME280;6098;49.004;8.372;2023-04-27T14:41:28;100387.59;;;22.24;32.68
12073;BME280;6098;49.004;8.372;2023-04-27T14:56:22;100393.66;;;22.27;32.10
12073;BME280;6098;49.004;8.372;2023-04-27T15:11:17;100384.84;;;22.61;32.80
12073;BME280;6098;49.004;8.372;2023-04-27T15:26:05;100373.63;;;22.09;32.41
12073;BME280;6098;49.004;8.372;2023-04-27T15:41:00;100353.67;;;22.16;33.15
12073;BME280;6098;49.004;8.372;2023-04-27T15:55:56;100335.09;;;22.02;33.65
12073;BME280;6098;49.004;8.372;2023-04-27T16:10:39;100311.45;;;20.89;35.49
12073;BME280;6098;49.004;8.372;2023-04-27T16:25:29;100305.45;;;20.48;36.24
12073;BME280;6098;49.004;8.372;2023-04-27T16:40:22;100292.58;;;20.02;37.88
12073;BME280;6098;49.004;8.372;2023-04-27T16:55:15;100312.00;;;19.78;38.32
12073;BME280;6098;49.004;8.372;2023-04-27T17:10:07;100305.25;;;19.67;38.28
12073;BME280;6098;49.004;8.372;2023-04-27T17:24:59;100300.45;;;19.54;39.48
12073;BME280;6098;49.004;8.372;2023-04-27T17:39:50;100297.77;;;19.24;38.81
12073;BME280;6098;49.004;8.372;2023-04-27T17:54:43;100301.66;;;19.14;41.51
12073;BME280;6098;49.004;8.372;2023-04-27T18:09:34;100283.16;;;18.69;44.11
12073;BME280;6098;49.004;8.372;2023-04-27T18:24:24;100284.02;;;18.38;42.99
12073;BME280;6098;49.004;8.372;2023-04-27T18:39:16;100288.50;;;18.13;44.21
12073;BME280;6098;49.004;8.372;2023-04-27T18:54:06;100284.66;;;17.86;45.06
12073;BME280;6098;49.004;8.372;2023-04-27T19:08:58;100279.86;;;17.72;45.77
12073;BME280;6098;49.004;8.372;2023-04-27T19:23:49;100286.45;;;17.47;46.86
12073;BME280;6098;49.004;8.372;2023-04-27T19:38:39;100279.03;;;17.26;47.99
12073;BME280;6098;49.004;8.372;2023-04-27T19:53:33;100280.58;;;17.03;49.05
12073;BME280;6098;49.004;8.372;2023-04-27T20:08:24;100281.23;;;16.87;48.99
12073;BME280;6098;49.004;8.372;2023-04-27T20:23:17;100258.22;;;16.77;49.61
12073;BME280;6098;49.004;8.372;2023-04-27T20:38:08;100248.19;;;16.60;50.10
12073;BME280;6098;49.004;8.372;2023-04-27T20:53:00;100236.06;;;16.41;51.08
12073;BME280;6098;49.004;8.372;2023-04-27T21:07:52;100227.23;;;16.33;51.38
12073;BME280;6098;49.004;8.372;2023-04-27T21:22:41;100212.75;;;16.22;52.02
12073;BME280;6098;49.004;8.372;2023-04-27T21:37:32;100198.78;;;16.11;52.45
12073;BME280;6098;49.004;8.372;2023-04-27T21:52:23;100194.06;;;16.01;53.12
12073;BME280;6098;49.004;8.372;2023-04-27T22:07:16;100180.28;;;15.94;52.95
12073;BME280;6098;49.004;8.372;2023-04-27T22:22:08;100183.25;;;15.97;52.90
12073;BME280;6098;49.004;8.372;2023-04-27T22:37:00;100170.59;;;15.92;53.00
12073;BME280;6098;49.004;8.372;2023-04-27T22:51:52;100167.35;;;15.94;52.95
12073;BME280;6098;49.004;8.372;2023-04-27T23:06:44;100122.73;;;15.95;53.90
12073;BME280;6098;49.004;8.372;2023-04-27T23:21:35;100130.93;;;15.93;53.38
12073;BME280;6098;49.004;8.372;2023-04-27T23:36:26;100104.70;;;15.85;53.32
12073;BME280;6098;49.004;8.372;2023-04-27T23:51:18;100116.80;;;15.84;53.45
